Aviation Digital Data Service (ADDS)

Output produced by METARs form (0020 UTC 19 August 2019)
found at http://www.aviationweather.gov/metar/data/
 
METAR text: KBHM 182353Z 13005KT 10SM BKN090 34/17 A2998 RMK AO2 SLP141 T03440167 10378 20344 53005
Conditions at: KBHM (BIRMINGHAM , AL, US) observed 2353 UTC 18 August 2019
Temperature: 34.4°C (94°F)
Dewpoint: 16.7°C (62°F) [RH = 35%]
Pressure (altimeter): 29.98 inches Hg (1015.3 mb)
[Sea-level pressure: 1014.1 mb]
Winds: from the SE (130 degrees) at 6 MPH (5 knots; 2.6 m/s)
Visibility: 10 or more miles (16+ km)
Ceiling: 9000 feet AGL
Clouds: broken clouds at 9000 feet AGL
Weather: no significant weather observed at this time

METAR text: KBHM 182253Z 14005KT 10SM FEW090 FEW120 SCT250 36/16 A2996 RMK AO2 SLP135 T03560161
Conditions at: KBHM (BIRMINGHAM , AL, US) observed 2253 UTC 18 August 2019
Temperature: 35.6°C (96°F)
Dewpoint: 16.1°C (61°F) [RH = 31%]
Pressure (altimeter): 29.96 inches Hg (1014.6 mb)
[Sea-level pressure: 1013.5 mb]
Winds: from the SE (140 degrees) at 6 MPH (5 knots; 2.6 m/s)
Visibility: 10 or more miles (16+ km)
Ceiling: at least 12,000 feet AGL
Clouds: few clouds at 9000 feet AGL
few clouds at 12000 feet AGL
scattered clouds at 25000 feet AGL
Weather: no significant weather observed at this time

METAR text: KBHM 182153Z VRB03KT 10SM FEW090 SCT250 36/16 A2997 RMK AO2 SLP139 T03610156
Conditions at: KBHM (BIRMINGHAM , AL, US) observed 2153 UTC 18 August 2019
Temperature: 36.1°C (97°F)
Dewpoint: 15.6°C (60°F) [RH = 30%]
Pressure (altimeter): 29.97 inches Hg (1015.0 mb)
[Sea-level pressure: 1013.9 mb]
Winds: variable direction winds at 3 MPH (3 knots; 1.5 m/s)
Visibility: 10 or more miles (16+ km)
Ceiling: at least 12,000 feet AGL
Clouds: few clouds at 9000 feet AGL
scattered clouds at 25000 feet AGL
Weather: no significant weather observed at this time

METAR text: KBHM 182053Z 04006KT 10SM BKN085 OVC120 36/16 A2996 RMK AO2 SLP136 T03610161 56026
Conditions at: KBHM (BIRMINGHAM , AL, US) observed 2053 UTC 18 August 2019
Temperature: 36.1°C (97°F)
Dewpoint: 16.1°C (61°F) [RH = 31%]
Pressure (altimeter): 29.96 inches Hg (1014.6 mb)
[Sea-level pressure: 1013.6 mb]
Winds: from the NE (40 degrees) at 7 MPH (6 knots; 3.1 m/s)
Visibility: 10 or more miles (16+ km)
Ceiling: 8500 feet AGL
Clouds: broken clouds at 8500 feet AGL
overcast cloud deck at 12000 feet AGL
Weather: no significant weather observed at this time

METAR text: KBHM 181953Z VRB04KT 10SM FEW080 BKN250 36/16 A2998 RMK AO2 SLP141 T03560161
Conditions at: KBHM (BIRMINGHAM , AL, US) observed 1953 UTC 18 August 2019
Temperature: 35.6°C (96°F)
Dewpoint: 16.1°C (61°F) [RH = 31%]
Pressure (altimeter): 29.98 inches Hg (1015.3 mb)
[Sea-level pressure: 1014.1 mb]
Winds: variable direction winds at 5 MPH (4 knots; 2.1 m/s)
Visibility: 10 or more miles (16+ km)
Ceiling: 25000 feet AGL
Clouds: few clouds at 8000 feet AGL
broken clouds at 25000 feet AGL
Weather: no significant weather observed at this time

METAR text: KBHM 181853Z VRB03KT 10SM SCT080 BKN090 BKN250 36/17 A3001 RMK AO2 SLP153 T03610167
Conditions at: KBHM (BIRMINGHAM , AL, US) observed 1853 UTC 18 August 2019
Temperature: 36.1°C (97°F)
Dewpoint: 16.7°C (62°F) [RH = 32%]
Pressure (altimeter): 30.01 inches Hg (1016.3 mb)
[Sea-level pressure: 1015.3 mb]
Winds: variable direction winds at 3 MPH (3 knots; 1.5 m/s)
Visibility: 10 or more miles (16+ km)
Ceiling: 9000 feet AGL
Clouds: scattered clouds at 8000 feet AGL
broken clouds at 9000 feet AGL
broken clouds at 25000 feet AGL
Weather: no significant weather observed at this time

METAR text: KBHM 181753Z VRB03KT 10SM FEW070 SCT250 36/17 A3004 RMK AO2 SLP162 T03610167 10367 20239 58004
Conditions at: KBHM (BIRMINGHAM , AL, US) observed 1753 UTC 18 August 2019
Temperature: 36.1°C (97°F)
Dewpoint: 16.7°C (62°F) [RH = 32%]
Pressure (altimeter): 30.04 inches Hg (1017.4 mb)
[Sea-level pressure: 1016.2 mb]
Winds: variable direction winds at 3 MPH (3 knots; 1.5 m/s)
Visibility: 10 or more miles (16+ km)
Ceiling: at least 12,000 feet AGL
Clouds: few clouds at 7000 feet AGL
scattered clouds at 25000 feet AGL
Weather: no significant weather observed at this time

METAR text: KBHM 181653Z VRB04KT 10SM FEW070 FEW250 36/17 A3005 RMK AO2 SLP165 T03560172
Conditions at: KBHM (BIRMINGHAM , AL, US) observed 1653 UTC 18 August 2019
Temperature: 35.6°C (96°F)
Dewpoint: 17.2°C (63°F) [RH = 34%]
Pressure (altimeter): 30.05 inches Hg (1017.7 mb)
[Sea-level pressure: 1016.5 mb]
Winds: variable direction winds at 5 MPH (4 knots; 2.1 m/s)
Visibility: 10 or more miles (16+ km)
Ceiling: at least 12,000 feet AGL
Clouds: few clouds at 7000 feet AGL
few clouds at 25000 feet AGL
Weather: no significant weather observed at this time

METAR text: KBHM 181553Z 33007KT 10SM FEW250 34/18 A3006 RMK AO2 SLP167 T03440178
Conditions at: KBHM (BIRMINGHAM , AL, US) observed 1553 UTC 18 August 2019
Temperature: 34.4°C (94°F)
Dewpoint: 17.8°C (64°F) [RH = 37%]
Pressure (altimeter): 30.06 inches Hg (1018.0 mb)
[Sea-level pressure: 1016.7 mb]
Winds: from the NNW (330 degrees) at 8 MPH (7 knots; 3.6 m/s)
Visibility: 10 or more miles (16+ km)
Ceiling: at least 12,000 feet AGL
Clouds: few clouds at 25000 feet AGL
Weather: no significant weather observed at this time

METAR text: KBHM 181453Z 00000KT 10SM FEW250 31/20 A3005 RMK AO2 SLP167 T03110200 52010
Conditions at: KBHM (BIRMINGHAM , AL, US) observed 1453 UTC 18 August 2019
Temperature: 31.1°C (88°F)
Dewpoint: 20.0°C (68°F) [RH = 52%]
Pressure (altimeter): 30.05 inches Hg (1017.7 mb)
[Sea-level pressure: 1016.7 mb]
Winds: calm
Visibility: 10 or more miles (16+ km)
Ceiling: at least 12,000 feet AGL
Clouds: few clouds at 25000 feet AGL
Weather: no significant weather observed at this time

METAR text: KBHM 181353Z VRB03KT 10SM FEW250 29/21 A3004 RMK AO2 SLP162 T02890206
Conditions at: KBHM (BIRMINGHAM , AL, US) observed 1353 UTC 18 August 2019
Temperature: 28.9°C (84°F)
Dewpoint: 20.6°C (69°F) [RH = 61%]
Pressure (altimeter): 30.04 inches Hg (1017.4 mb)
[Sea-level pressure: 1016.2 mb]
Winds: variable direction winds at 3 MPH (3 knots; 1.5 m/s)
Visibility: 10 or more miles (16+ km)
Ceiling: at least 12,000 feet AGL
Clouds: few clouds at 25000 feet AGL
Weather: no significant weather observed at this time

METAR text: KBHM 181253Z 18003KT 10SM FEW250 26/21 A3004 RMK AO2 SLP161 T02610211
Conditions at: KBHM (BIRMINGHAM , AL, US) observed 1253 UTC 18 August 2019
Temperature: 26.1°C (79°F)
Dewpoint: 21.1°C (70°F) [RH = 74%]
Pressure (altimeter): 30.04 inches Hg (1017.4 mb)
[Sea-level pressure: 1016.1 mb]
Winds: from the S (180 degrees) at 3 MPH (3 knots; 1.5 m/s)
Visibility: 10 or more miles (16+ km)
Ceiling: at least 12,000 feet AGL
Clouds: few clouds at 25000 feet AGL
Weather: no significant weather observed at this time

METAR text: KBHM 181153Z 12003KT 10SM FEW250 24/21 A3002 RMK AO2 SLP156 T02390206 10267 20233 53010
Conditions at: KBHM (BIRMINGHAM , AL, US) observed 1153 UTC 18 August 2019
Temperature: 23.9°C (75°F)
Dewpoint: 20.6°C (69°F) [RH = 82%]
Pressure (altimeter): 30.02 inches Hg (1016.7 mb)
[Sea-level pressure: 1015.6 mb]
Winds: from the ESE (120 degrees) at 3 MPH (3 knots; 1.5 m/s)
Visibility: 10 or more miles (16+ km)
Ceiling: at least 12,000 feet AGL
Clouds: few clouds at 25000 feet AGL
Weather: no significant weather observed at this time

METAR text: KBHM 181053Z 14003KT 10SM CLR 24/21 A3001 RMK AO2 SLP151 T02390206
Conditions at: KBHM (BIRMINGHAM , AL, US) observed 1053 UTC 18 August 2019
Temperature: 23.9°C (75°F)
Dewpoint: 20.6°C (69°F) [RH = 82%]
Pressure (altimeter): 30.01 inches Hg (1016.3 mb)
[Sea-level pressure: 1015.1 mb]
Winds: from the SE (140 degrees) at 3 MPH (3 knots; 1.5 m/s)
Visibility: 10 or more miles (16+ km)
Ceiling: at least 12,000 feet AGL
Clouds: sky clear below 12,000 feet AGL
Weather: no significant weather observed at this time

METAR text: KBHM 180953Z 17004KT 10SM CLR 24/20 A3000 RMK AO2 SLP147 T02440200
Conditions at: KBHM (BIRMINGHAM , AL, US) observed 0953 UTC 18 August 2019
Temperature: 24.4°C (76°F)
Dewpoint: 20.0°C (68°F) [RH = 77%]
Pressure (altimeter): 30.00 inches Hg (1016.0 mb)
[Sea-level pressure: 1014.7 mb]
Winds: from the S (170 degrees) at 5 MPH (4 knots; 2.1 m/s)
Visibility: 10 or more miles (16+ km)
Ceiling: at least 12,000 feet AGL
Clouds: sky clear below 12,000 feet AGL
Weather: no significant weather observed at this time

METAR text: KBHM 180853Z 17006KT 10SM CLR 26/17 A2999 RMK AO2 SLP146 T02560172 53000
Conditions at: KBHM (BIRMINGHAM , AL, US) observed 0853 UTC 18 August 2019
Temperature: 25.6°C (78°F)
Dewpoint: 17.2°C (63°F) [RH = 60%]
Pressure (altimeter): 29.99 inches Hg (1015.7 mb)
[Sea-level pressure: 1014.6 mb]
Winds: from the S (170 degrees) at 7 MPH (6 knots; 3.1 m/s)
Visibility: 10 or more miles (16+ km)
Ceiling: at least 12,000 feet AGL
Clouds: sky clear below 12,000 feet AGL
Weather: no significant weather observed at this time

METAR text: KBHM 180753Z 00000KT 10SM CLR 26/17 A2999 RMK AO2 SLP143 T02610167
Conditions at: KBHM (BIRMINGHAM , AL, US) observed 0753 UTC 18 August 2019
Temperature: 26.1°C (79°F)
Dewpoint: 16.7°C (62°F) [RH = 56%]
Pressure (altimeter): 29.99 inches Hg (1015.7 mb)
[Sea-level pressure: 1014.3 mb]
Winds: calm
Visibility: 10 or more miles (16+ km)
Ceiling: at least 12,000 feet AGL
Clouds: sky clear below 12,000 feet AGL
Weather: no significant weather observed at this time

METAR text: KBHM 180653Z 00000KT 10SM CLR 25/17 A2998 RMK AO2 SLP143 T02500167
Conditions at: KBHM (BIRMINGHAM , AL, US) observed 0653 UTC 18 August 2019
Temperature: 25.0°C (77°F)
Dewpoint: 16.7°C (62°F) [RH = 60%]
Pressure (altimeter): 29.98 inches Hg (1015.3 mb)
[Sea-level pressure: 1014.3 mb]
Winds: calm
Visibility: 10 or more miles (16+ km)
Ceiling: at least 12,000 feet AGL
Clouds: sky clear below 12,000 feet AGL
Weather: no significant weather observed at this time

METAR text: KBHM 180553Z 00000KT 10SM CLR 26/17 A2999 RMK AO2 SLP146 T02610167 10350 20261 403780194 50001
Conditions at: KBHM (BIRMINGHAM , AL, US) observed 0553 UTC 18 August 2019
Temperature: 26.1°C (79°F)
Dewpoint: 16.7°C (62°F) [RH = 56%]
Pressure (altimeter): 29.99 inches Hg (1015.7 mb)
[Sea-level pressure: 1014.6 mb]
Winds: calm
Visibility: 10 or more miles (16+ km)
Ceiling: at least 12,000 feet AGL
Clouds: sky clear below 12,000 feet AGL
Weather: no significant weather observed at this time

METAR text: KBHM 180453Z 00000KT 10SM CLR 28/16 A3000 RMK AO2 SLP147 T02830161
Conditions at: KBHM (BIRMINGHAM , AL, US) observed 0453 UTC 18 August 2019
Temperature: 28.3°C (83°F)
Dewpoint: 16.1°C (61°F) [RH = 48%]
Pressure (altimeter): 30.00 inches Hg (1016.0 mb)
[Sea-level pressure: 1014.7 mb]
Winds: calm
Visibility: 10 or more miles (16+ km)
Ceiling: at least 12,000 feet AGL
Clouds: sky clear below 12,000 feet AGL
Weather: no significant weather observed at this time

METAR text: KBHM 180353Z 07003KT 10SM CLR 28/16 A2999 RMK AO2 SLP146 T02780161
Conditions at: KBHM (BIRMINGHAM , AL, US) observed 0353 UTC 18 August 2019
Temperature: 27.8°C (82°F)
Dewpoint: 16.1°C (61°F) [RH = 49%]
Pressure (altimeter): 29.99 inches Hg (1015.7 mb)
[Sea-level pressure: 1014.6 mb]
Winds: from the ENE (70 degrees) at 3 MPH (3 knots; 1.5 m/s)
Visibility: 10 or more miles (16+ km)
Ceiling: at least 12,000 feet AGL
Clouds: sky clear below 12,000 feet AGL
Weather: no significant weather observed at this time

METAR text: KBHM 180253Z 02003KT 10SM CLR 28/16 A2999 RMK AO2 SLP145 T02830161 53013
Conditions at: KBHM (BIRMINGHAM , AL, US) observed 0253 UTC 18 August 2019
Temperature: 28.3°C (83°F)
Dewpoint: 16.1°C (61°F) [RH = 48%]
Pressure (altimeter): 29.99 inches Hg (1015.7 mb)
[Sea-level pressure: 1014.5 mb]
Winds: from the NNE (20 degrees) at 3 MPH (3 knots; 1.5 m/s)
Visibility: 10 or more miles (16+ km)
Ceiling: at least 12,000 feet AGL
Clouds: sky clear below 12,000 feet AGL
Weather: no significant weather observed at this time

METAR text: KBHM 180153Z 00000KT 10SM CLR 29/16 A2998 RMK AO2 SLP141 T02940156
Conditions at: KBHM (BIRMINGHAM , AL, US) observed 0153 UTC 18 August 2019
Temperature: 29.4°C (85°F)
Dewpoint: 15.6°C (60°F) [RH = 43%]
Pressure (altimeter): 29.98 inches Hg (1015.3 mb)
[Sea-level pressure: 1014.1 mb]
Winds: calm
Visibility: 10 or more miles (16+ km)
Ceiling: at least 12,000 feet AGL
Clouds: sky clear below 12,000 feet AGL
Weather: no significant weather observed at this time

METAR text: KBHM 180053Z 00000KT 10SM FEW090 32/14 A2996 RMK AO2 SLP135 T03220144
Conditions at: KBHM (BIRMINGHAM , AL, US) observed 0053 UTC 18 August 2019
Temperature: 32.2°C (90°F)
Dewpoint: 14.4°C (58°F) [RH = 34%]
Pressure (altimeter): 29.96 inches Hg (1014.6 mb)
[Sea-level pressure: 1013.5 mb]
Winds: calm
Visibility: 10 or more miles (16+ km)
Ceiling: at least 12,000 feet AGL
Clouds: few clouds at 9000 feet AGL
Weather: no significant weather observed at this time

METAR text: KBHM 172353Z 07005KT 10SM FEW090 35/14 A2995 RMK AO2 SLP133 T03500139 10378 20350 55002
Conditions at: KBHM (BIRMINGHAM , AL, US) observed 2353 UTC 17 August 2019
Temperature: 35.0°C (95°F)
Dewpoint: 13.9°C (57°F) [RH = 28%]
Pressure (altimeter): 29.95 inches Hg (1014.3 mb)
[Sea-level pressure: 1013.3 mb]
Winds: from the ENE (70 degrees) at 6 MPH (5 knots; 2.6 m/s)
Visibility: 10 or more miles (16+ km)
Ceiling: at least 12,000 feet AGL
Clouds: few clouds at 9000 feet AGL
Weather: no significant weather observed at this time

METAR text: KBHM 172253Z 07005KT 10SM FEW090 36/14 A2995 RMK AO2 SLP133 T03610144
Conditions at: KBHM (BIRMINGHAM , AL, US) observed 2253 UTC 17 August 2019
Temperature: 36.1°C (97°F)
Dewpoint: 14.4°C (58°F) [RH = 27%]
Pressure (altimeter): 29.95 inches Hg (1014.3 mb)
[Sea-level pressure: 1013.3 mb]
Winds: from the ENE (70 degrees) at 6 MPH (5 knots; 2.6 m/s)
Visibility: 10 or more miles (16+ km)
Ceiling: at least 12,000 feet AGL
Clouds: few clouds at 9000 feet AGL
Weather: no significant weather observed at this time

METAR text: KBHM 172153Z 36004KT 10SM FEW085 37/13 A2996 RMK AO2 SLP134 T03720133
Conditions at: KBHM (BIRMINGHAM , AL, US) observed 2153 UTC 17 August 2019
Temperature: 37.2°C (99°F)
Dewpoint: 13.3°C (56°F) [RH = 24%]
Pressure (altimeter): 29.96 inches Hg (1014.6 mb)
[Sea-level pressure: 1013.4 mb]
Winds: from the N (360 degrees) at 5 MPH (4 knots; 2.1 m/s)
Visibility: 10 or more miles (16+ km)
Ceiling: at least 12,000 feet AGL
Clouds: few clouds at 8500 feet AGL
Weather: no significant weather observed at this time

METAR text: KBHM 172053Z VRB03KT 10SM FEW085 37/13 A2996 RMK AO2 SLP135 T03720133 56019
Conditions at: KBHM (BIRMINGHAM , AL, US) observed 2053 UTC 17 August 2019
Temperature: 37.2°C (99°F)
Dewpoint: 13.3°C (56°F) [RH = 24%]
Pressure (altimeter): 29.96 inches Hg (1014.6 mb)
[Sea-level pressure: 1013.5 mb]
Winds: variable direction winds at 3 MPH (3 knots; 1.5 m/s)
Visibility: 10 or more miles (16+ km)
Ceiling: at least 12,000 feet AGL
Clouds: few clouds at 8500 feet AGL
Weather: no significant weather observed at this time

METAR text: KBHM 171953Z 01009KT 10SM FEW080 38/13 A2998 RMK AO2 SLP141 T03780133
Conditions at: KBHM (BIRMINGHAM , AL, US) observed 1953 UTC 17 August 2019
Temperature: 37.8°C (100°F)
Dewpoint: 13.3°C (56°F) [RH = 23%]
Pressure (altimeter): 29.98 inches Hg (1015.3 mb)
[Sea-level pressure: 1014.1 mb]
Winds: from the N (10 degrees) at 10 MPH (9 knots; 4.6 m/s)
Visibility: 10 or more miles (16+ km)
Ceiling: at least 12,000 feet AGL
Clouds: few clouds at 8000 feet AGL
Weather: no significant weather observed at this time

METAR text: KBHM 171853Z 35005KT 10SM FEW070 FEW250 37/14 A2999 RMK AO2 SLP145 T03670144
Conditions at: KBHM (BIRMINGHAM , AL, US) observed 1853 UTC 17 August 2019
Temperature: 36.7°C (98°F)
Dewpoint: 14.4°C (58°F) [RH = 27%]
Pressure (altimeter): 29.99 inches Hg (1015.7 mb)
[Sea-level pressure: 1014.5 mb]
Winds: from the N (350 degrees) at 6 MPH (5 knots; 2.6 m/s)
Visibility: 10 or more miles (16+ km)
Ceiling: at least 12,000 feet AGL
Clouds: few clouds at 7000 feet AGL
few clouds at 25000 feet AGL
Weather: no significant weather observed at this time

METAR text: KBHM 171753Z 31005KT 10SM FEW250 36/15 A3002 RMK AO2 SLP154 T03560150 10361 20211 58009
Conditions at: KBHM (BIRMINGHAM , AL, US) observed 1753 UTC 17 August 2019
Temperature: 35.6°C (96°F)
Dewpoint: 15.0°C (59°F) [RH = 29%]
Pressure (altimeter): 30.02 inches Hg (1016.7 mb)
[Sea-level pressure: 1015.4 mb]
Winds: from the NW (310 degrees) at 6 MPH (5 knots; 2.6 m/s)
Visibility: 10 or more miles (16+ km)
Ceiling: at least 12,000 feet AGL
Clouds: few clouds at 25000 feet AGL
Weather: no significant weather observed at this time

METAR text: KBHM 171653Z VRB03KT 10SM FEW250 36/14 A3004 RMK AO2 SLP162 T03560144
Conditions at: KBHM (BIRMINGHAM , AL, US) observed 1653 UTC 17 August 2019
Temperature: 35.6°C (96°F)
Dewpoint: 14.4°C (58°F) [RH = 28%]
Pressure (altimeter): 30.04 inches Hg (1017.4 mb)
[Sea-level pressure: 1016.2 mb]
Winds: variable direction winds at 3 MPH (3 knots; 1.5 m/s)
Visibility: 10 or more miles (16+ km)
Ceiling: at least 12,000 feet AGL
Clouds: few clouds at 25000 feet AGL
Weather: no significant weather observed at this time

METAR text: KBHM 171553Z VRB03KT 10SM FEW250 34/16 A3005 RMK AO2 SLP166 T03390161
Conditions at: KBHM (BIRMINGHAM , AL, US) observed 1553 UTC 17 August 2019
Temperature: 33.9°C (93°F)
Dewpoint: 16.1°C (61°F) [RH = 35%]
Pressure (altimeter): 30.05 inches Hg (1017.7 mb)
[Sea-level pressure: 1016.6 mb]
Winds: variable direction winds at 3 MPH (3 knots; 1.5 m/s)
Visibility: 10 or more miles (16+ km)
Ceiling: at least 12,000 feet AGL
Clouds: few clouds at 25000 feet AGL
Weather: no significant weather observed at this time

METAR text: KBHM 171453Z VRB03KT 10SM FEW250 32/17 A3005 RMK AO2 SLP164 T03220167 51012
Conditions at: KBHM (BIRMINGHAM , AL, US) observed 1453 UTC 17 August 2019
Temperature: 32.2°C (90°F)
Dewpoint: 16.7°C (62°F) [RH = 40%]
Pressure (altimeter): 30.05 inches Hg (1017.7 mb)
[Sea-level pressure: 1016.4 mb]
Winds: variable direction winds at 3 MPH (3 knots; 1.5 m/s)
Visibility: 10 or more miles (16+ km)
Ceiling: at least 12,000 feet AGL
Clouds: few clouds at 25000 feet AGL
Weather: no significant weather observed at this time

METAR text: KBHM 171353Z 00000KT 10SM FEW250 30/17 A3004 RMK AO2 SLP164 T03000167
Conditions at: KBHM (BIRMINGHAM , AL, US) observed 1353 UTC 17 August 2019
Temperature: 30.0°C (86°F)
Dewpoint: 16.7°C (62°F) [RH = 45%]
Pressure (altimeter): 30.04 inches Hg (1017.4 mb)
[Sea-level pressure: 1016.4 mb]
Winds: calm
Visibility: 10 or more miles (16+ km)
Ceiling: at least 12,000 feet AGL
Clouds: few clouds at 25000 feet AGL
Weather: no significant weather observed at this time

METAR text: KBHM 171253Z 00000KT 10SM FEW250 26/17 A3003 RMK AO2 SLP160 T02610172
Conditions at: KBHM (BIRMINGHAM , AL, US) observed 1253 UTC 17 August 2019
Temperature: 26.1°C (79°F)
Dewpoint: 17.2°C (63°F) [RH = 58%]
Pressure (altimeter): 30.03 inches Hg (1017.0 mb)
[Sea-level pressure: 1016.0 mb]
Winds: calm
Visibility: 10 or more miles (16+ km)
Ceiling: at least 12,000 feet AGL
Clouds: few clouds at 25000 feet AGL
Weather: no significant weather observed at this time

Forecast for: KBHM (BIRMINGHAM , AL, US)
Text: KBHM 182330Z 1900/1924 VRB03KT P6SM SCT050 SCT120
Forecast period: 0000 to 0100 UTC 19 August 2019
Forecast type: FROM: standard forecast or significant change
Winds: variable direction winds at 3 MPH (3 knots; 1.5 m/s)
Visibility: 6 or more miles 10+ km)
Ceiling: at least 12,000 feet AGL
Clouds: scattered clouds at 5000 feet AGL
scattered clouds at 12000 feet AGL
Weather: no significant weather forecast for this period
Text: FM190100 00000KT P6SM SCT250
Forecast period: 0100 to 1500 UTC 19 August 2019
Forecast type: FROM: standard forecast or significant change
Winds: calm
Visibility: 6 or more miles 10+ km)
Ceiling: at least 12,000 feet AGL
Clouds: scattered clouds at 25000 feet AGL
Weather: no significant weather forecast for this period
Text: FM191500 VRB05KT P6SM SCT060
Forecast period: 1500 UTC 19 August 2019 to 0000 UTC 20 August 2019
Forecast type: FROM: standard forecast or significant change
Winds: variable direction winds at 6 MPH (5 knots; 2.6 m/s)
Visibility: 6 or more miles 10+ km)
Ceiling: at least 12,000 feet AGL
Clouds: scattered clouds at 6000 feet AGL
Weather: no significant weather forecast for this period